createdAt,value
2019-01-14T00:01:37.405Z,5.40
2019-01-14T00:04:07.083Z,5.40
2019-01-14T00:06:36.801Z,5.30
2019-01-14T00:09:07.815Z,5.40
2019-01-14T00:11:37.487Z,5.40
2019-01-14T00:14:07.322Z,5.30
2019-01-14T00:16:37.066Z,5.30
2019-01-14T00:19:06.985Z,5.30
2019-01-14T00:21:36.797Z,5.20
2019-01-14T00:24:07.679Z,5.20
2019-01-14T00:26:37.654Z,5.20
2019-01-14T00:29:07.582Z,5.20
2019-01-14T00:31:37.197Z,5.30
2019-01-14T00:34:07.208Z,5.20
2019-01-14T00:36:38.147Z,5.30
2019-01-14T00:39:07.910Z,5.30
2019-01-14T00:41:38.458Z,5.40
2019-01-14T00:44:08.204Z,5.40
2019-01-14T00:46:37.928Z,5.30
2019-01-14T00:49:07.541Z,5.40
2019-01-14T00:51:37.247Z,5.50
2019-01-14T00:54:06.995Z,5.50
2019-01-14T00:56:36.714Z,5.50
2019-01-14T00:59:06.392Z,5.50
2019-01-14T01:01:36.202Z,5.50
2019-01-14T01:04:06.884Z,5.50
2019-01-14T01:06:36.817Z,5.50
2019-01-14T01:09:07.451Z,5.50
2019-01-14T01:11:37.353Z,5.50
2019-01-14T01:14:07.138Z,5.60
2019-01-14T01:16:36.734Z,5.60
2019-01-14T01:19:06.526Z,5.50
2019-01-14T01:21:36.254Z,5.60
2019-01-14T01:24:06.124Z,5.60
2019-01-14T01:26:36.273Z,5.60
2019-01-14T01:29:06.879Z,5.60
2019-01-14T01:31:36.626Z,5.60
2019-01-14T01:34:06.310Z,5.60
2019-01-14T01:36:36.061Z,5.60
2019-01-14T01:39:07.382Z,5.60
2019-01-14T01:41:37.154Z,5.60
2019-01-14T01:44:06.946Z,5.60
2019-01-14T01:46:36.743Z,5.50
2019-01-14T01:49:06.533Z,5.50
2019-01-14T01:51:36.373Z,5.50
2019-01-14T01:54:06.066Z,5.50
2019-01-14T01:56:35.650Z,5.50
2019-01-14T01:59:05.402Z,5.50
2019-01-14T02:01:35.223Z,5.60
2019-01-14T02:04:05.191Z,5.60
2019-01-14T02:06:39.142Z,5.50
2019-01-14T02:09:07.657Z,5.50
2019-01-14T02:11:37.490Z,5.50
2019-01-14T02:14:07.457Z,5.50
2019-01-14T02:16:37.240Z,5.50
2019-01-14T02:19:06.976Z,5.40
2019-01-14T02:21:36.639Z,5.40
2019-01-14T02:24:06.350Z,5.50
2019-01-14T02:26:36.078Z,5.50
2019-01-14T02:29:05.813Z,5.50
2019-01-14T02:31:35.535Z,5.50
2019-01-14T02:34:05.120Z,5.40
2019-01-14T02:36:35.254Z,5.30
2019-01-14T02:39:07.359Z,5.30
2019-01-14T02:41:36.998Z,5.20
2019-01-14T02:44:06.804Z,5.10
2019-01-14T02:46:36.610Z,5.10
2019-01-14T02:49:06.321Z,5.10
2019-01-14T02:51:36.085Z,5.10
2019-01-14T02:54:05.823Z,5.10
2019-01-14T02:56:35.531Z,5.20
2019-01-14T02:59:05.278Z,5.20
2019-01-14T03:01:35.044Z,5.10
2019-01-14T03:04:05.125Z,4.90
2019-01-14T03:06:34.943Z,4.50
2019-01-14T03:09:11.883Z,4.10
2019-01-14T03:11:41.823Z,3.90
2019-01-14T03:14:11.481Z,3.80
2019-01-14T03:16:41.413Z,3.80
2019-01-14T03:19:11.190Z,3.80
2019-01-14T03:21:41.016Z,3.80
2019-01-14T03:24:10.622Z,3.80
2019-01-14T03:26:40.266Z,3.90
2019-01-14T03:29:10.055Z,3.90
2019-01-14T03:31:39.746Z,3.90
2019-01-14T03:34:09.587Z,3.90
2019-01-14T03:36:39.266Z,3.90
2019-01-14T03:39:09.096Z,3.90
2019-01-14T03:41:38.853Z,3.90
2019-01-14T03:44:09.603Z,3.90
2019-01-14T03:46:41.122Z,4.00
2019-01-14T03:49:11.602Z,4.00
2019-01-14T03:51:41.315Z,4.10
2019-01-14T03:54:12.822Z,4.20
2019-01-14T03:56:42.490Z,4.30
2019-01-14T03:59:13.471Z,4.30
2019-01-14T04:01:43.167Z,4.30
2019-01-14T04:04:12.984Z,4.40
2019-01-14T04:06:42.578Z,4.40
2019-01-14T04:09:12.364Z,4.40
2019-01-14T04:11:42.026Z,4.40
2019-01-14T04:14:11.784Z,4.40
2019-01-14T04:16:41.373Z,4.30
2019-01-14T04:19:12.619Z,4.30
2019-01-14T04:21:42.276Z,4.30
2019-01-14T04:24:11.964Z,4.30
2019-01-14T04:26:41.703Z,4.30
2019-01-14T04:29:11.479Z,4.30
2019-01-14T04:31:41.139Z,4.20
2019-01-14T04:34:11.781Z,4.20
2019-01-14T04:36:41.506Z,4.20
2019-01-14T04:39:11.468Z,4.20
2019-01-14T04:41:41.264Z,4.20
2019-01-14T04:44:10.898Z,4.20
2019-01-14T04:46:40.634Z,4.20
2019-01-14T04:49:10.278Z,4.20
2019-01-14T04:51:40.832Z,4.20
2019-01-14T04:54:10.451Z,4.30
2019-01-14T04:56:40.176Z,4.30
2019-01-14T04:59:09.854Z,4.20
2019-01-14T05:01:39.720Z,4.20
2019-01-14T05:04:09.392Z,4.20
2019-01-14T05:06:39.154Z,4.30
2019-01-14T05:09:09.975Z,4.20
2019-01-14T05:11:39.817Z,4.20
2019-01-14T05:14:09.430Z,4.20
2019-01-14T05:16:39.246Z,4.10
2019-01-14T05:19:08.987Z,4.20
2019-01-14T05:21:38.864Z,4.10
2019-01-14T05:24:08.605Z,4.00
2019-01-14T05:26:38.213Z,4.00
2019-01-14T05:29:08.137Z,4.00
2019-01-14T05:31:37.877Z,4.00
2019-01-14T05:34:07.717Z,4.00
2019-01-14T05:36:37.550Z,4.00
2019-01-14T05:39:07.788Z,4.00
2019-01-14T05:41:37.465Z,3.90
2019-01-14T05:44:07.173Z,3.90
2019-01-14T05:46:36.838Z,3.90
2019-01-14T05:49:06.635Z,3.80
2019-01-14T05:51:36.239Z,3.80
2019-01-14T05:54:06.955Z,3.70
2019-01-14T05:56:36.755Z,3.70
2019-01-14T05:59:06.421Z,3.70
2019-01-14T06:01:36.175Z,3.70
2019-01-14T06:04:06.818Z,3.70
2019-01-14T06:06:36.557Z,3.60
2019-01-14T06:09:07.243Z,3.60
2019-01-14T06:11:37.065Z,3.60
2019-01-14T06:14:06.900Z,3.60
2019-01-14T06:16:36.516Z,3.60
2019-01-14T06:19:07.376Z,3.60
2019-01-14T06:21:37.245Z,3.50
2019-01-14T06:24:07.004Z,3.50
2019-01-14T06:26:36.684Z,3.50
2019-01-14T06:29:06.366Z,3.40
2019-01-14T06:31:36.147Z,3.40
2019-01-14T06:34:06.817Z,3.40
2019-01-14T06:36:36.558Z,3.40
2019-01-14T06:39:08.788Z,3.50
2019-01-14T06:41:39.779Z,3.50
2019-01-14T06:44:09.452Z,3.50
2019-01-14T06:46:39.193Z,3.50
2019-01-14T06:49:08.946Z,3.50
2019-01-14T06:51:38.643Z,3.40
2019-01-14T06:54:08.301Z,3.40
2019-01-14T06:56:39.004Z,3.40
2019-01-14T06:59:08.735Z,3.30
2019-01-14T07:01:38.476Z,3.30
2019-01-14T07:04:08.141Z,3.30
2019-01-14T07:06:37.941Z,3.30
2019-01-14T07:09:07.758Z,3.40
2019-01-14T07:11:38.241Z,3.50
2019-01-14T07:14:08.052Z,3.50
2019-01-14T07:16:38.674Z,3.60
2019-01-14T07:19:08.345Z,3.60
2019-01-14T07:21:38.070Z,3.60
2019-01-14T07:24:07.825Z,3.60
2019-01-14T07:26:37.592Z,3.60
2019-01-14T07:29:07.277Z,3.60
2019-01-14T07:31:37.103Z,3.60
2019-01-14T07:34:07.830Z,3.60
2019-01-14T07:36:37.666Z,3.60
2019-01-14T07:39:08.586Z,3.60
2019-01-14T07:41:39.179Z,3.60
2019-01-14T07:44:08.916Z,3.60
2019-01-14T07:46:38.675Z,3.70
2019-01-14T07:49:08.344Z,3.70
2019-01-14T07:51:39.013Z,3.70
2019-01-14T07:54:09.719Z,3.80
2019-01-14T07:56:39.917Z,3.90
2019-01-14T07:59:09.818Z,3.80
2019-01-14T08:01:39.734Z,3.80
2019-01-14T08:04:10.255Z,3.80
2019-01-14T08:06:40.012Z,3.80
2019-01-14T08:09:09.925Z,3.70
2019-01-14T08:11:39.608Z,3.60
2019-01-14T08:14:09.461Z,3.50
2019-01-14T08:16:39.146Z,3.60
2019-01-14T08:19:09.888Z,3.60
2019-01-14T08:21:39.504Z,3.60
2019-01-14T08:24:09.160Z,3.60
2019-01-14T08:26:39.851Z,3.70
2019-01-14T08:29:09.548Z,3.70
2019-01-14T08:31:39.319Z,3.70
2019-01-14T08:34:09.186Z,3.80
2019-01-14T08:36:38.928Z,3.90
2019-01-14T08:39:08.915Z,4.00
2019-01-14T08:41:39.850Z,4.00
2019-01-14T08:44:09.922Z,4.00
2019-01-14T08:46:39.690Z,4.00
2019-01-14T08:49:09.389Z,3.90
2019-01-14T08:51:39.111Z,3.90
2019-01-14T08:54:09.025Z,3.70
2019-01-14T08:56:38.652Z,3.70
2019-01-14T08:59:08.420Z,3.60
2019-01-14T09:01:38.191Z,3.60
2019-01-14T09:04:07.934Z,3.40
2019-01-14T09:06:37.654Z,3.40
2019-01-14T09:09:09.321Z,3.40
2019-01-14T09:11:39.087Z,3.40
2019-01-14T09:14:08.814Z,3.40
2019-01-14T09:16:38.503Z,3.30
2019-01-14T09:19:08.238Z,3.30
2019-01-14T09:21:37.960Z,3.20
2019-01-14T09:24:07.638Z,3.20
2019-01-14T09:26:37.374Z,3.20
2019-01-14T09:29:07.115Z,3.10
2019-01-14T09:31:38.317Z,3.10
2019-01-14T09:34:08.414Z,3.10
2019-01-14T09:36:38.195Z,3.20
2019-01-14T09:39:08.698Z,3.20
2019-01-14T09:41:38.456Z,3.20
2019-01-14T09:44:08.140Z,3.30
2019-01-14T09:46:37.908Z,3.30
2019-01-14T09:49:10.143Z,3.40
2019-01-14T09:51:41.427Z,3.50
2019-01-14T09:54:11.116Z,3.70
2019-01-14T09:56:40.945Z,3.90
2019-01-14T09:59:10.776Z,4.00
2019-01-14T10:01:41.392Z,4.10
2019-01-14T10:04:11.228Z,4.20
2019-01-14T10:06:40.963Z,4.30
2019-01-14T10:09:10.803Z,4.30
2019-01-14T10:11:40.483Z,4.20
2019-01-14T10:14:11.169Z,4.20
2019-01-14T10:16:42.976Z,4.10
2019-01-14T10:19:12.724Z,4.10
2019-01-14T10:21:42.652Z,4.20
2019-01-14T10:24:12.318Z,4.30
2019-01-14T10:26:42.381Z,4.30
2019-01-14T10:29:14.415Z,4.20
2019-01-14T10:31:44.163Z,4.20
2019-01-14T10:34:13.770Z,4.20
2019-01-14T10:36:43.634Z,4.20
2019-01-14T10:39:15.376Z,4.10
2019-01-14T10:41:45.198Z,4.10
2019-01-14T10:44:14.882Z,4.20
2019-01-14T10:46:44.699Z,4.40
2019-01-14T10:49:14.382Z,4.60
2019-01-14T10:51:44.129Z,4.80
2019-01-14T10:54:13.823Z,4.80
2019-01-14T10:56:44.232Z,4.80
2019-01-14T10:59:14.070Z,4.70
2019-01-14T11:01:43.827Z,4.60
2019-01-14T11:04:13.586Z,4.70
2019-01-14T11:06:43.226Z,4.70
2019-01-14T11:09:12.919Z,4.80
2019-01-14T11:11:43.717Z,4.80
2019-01-14T11:14:13.449Z,4.80
2019-01-14T11:16:43.158Z,4.80
2019-01-14T11:19:13.330Z,4.80
2019-01-14T11:21:42.975Z,4.70
2019-01-14T11:24:14.288Z,4.80
2019-01-14T11:26:44.961Z,4.80
2019-01-14T11:29:14.611Z,4.80
2019-01-14T11:31:44.294Z,4.80
2019-01-14T11:34:13.947Z,4.80
2019-01-14T11:36:45.399Z,4.80
2019-01-14T11:39:16.954Z,4.70
2019-01-14T11:41:46.760Z,4.70
2019-01-14T11:44:16.735Z,4.60
2019-01-14T11:46:46.571Z,4.60
2019-01-14T11:49:16.233Z,4.70
2019-01-14T11:51:45.945Z,4.80
2019-01-14T11:54:15.650Z,4.90
2019-01-14T11:56:45.326Z,4.90
2019-01-14T11:59:15.117Z,4.90
2019-01-14T12:01:46.080Z,4.80
2019-01-14T12:04:15.936Z,4.80
2019-01-14T12:06:45.578Z,4.70
2019-01-14T12:09:15.328Z,4.70
2019-01-14T12:11:44.974Z,4.70
2019-01-14T12:14:14.720Z,4.60
2019-01-14T12:16:44.332Z,4.60
2019-01-14T12:19:14.888Z,4.60
2019-01-14T12:21:45.403Z,4.60
2019-01-14T12:24:16.017Z,4.60
2019-01-14T12:26:45.741Z,4.60
2019-01-14T12:29:15.413Z,4.70
2019-01-14T12:31:45.114Z,4.70
2019-01-14T12:34:14.862Z,4.70
2019-01-14T12:36:44.655Z,4.70
2019-01-14T12:39:19.465Z,4.80
2019-01-14T12:41:51.071Z,4.90
2019-01-14T12:44:17.523Z,5.00
2019-01-14T12:46:47.389Z,5.10
2019-01-14T12:49:17.040Z,5.10
2019-01-14T12:51:46.882Z,5.00
2019-01-14T12:54:16.682Z,5.00
2019-01-14T12:56:46.524Z,4.90
2019-01-14T12:59:16.506Z,4.80
2019-01-14T13:01:46.116Z,4.80
2019-01-14T13:04:15.768Z,4.70
2019-01-14T13:06:46.459Z,4.70
2019-01-14T13:09:16.291Z,4.70
2019-01-14T13:11:46.881Z,4.70
2019-01-14T13:14:16.572Z,4.60
2019-01-14T13:16:46.254Z,4.60
2019-01-14T13:19:15.974Z,4.50
2019-01-14T13:21:45.663Z,4.50
2019-01-14T13:24:15.414Z,4.50
2019-01-14T13:26:45.095Z,4.40
2019-01-14T13:29:15.346Z,4.40
2019-01-14T13:31:45.057Z,4.40
2019-01-14T13:34:14.688Z,4.40
2019-01-14T13:36:44.418Z,4.30
2019-01-14T13:39:14.371Z,4.40
2019-01-14T13:41:44.116Z,4.40
2019-01-14T13:44:13.813Z,4.40
2019-01-14T13:46:43.495Z,4.40
2019-01-14T13:49:13.201Z,4.40
2019-01-14T13:51:46.852Z,4.40
2019-01-14T13:54:14.262Z,4.40
2019-01-14T13:56:43.860Z,4.50
2019-01-14T13:59:13.631Z,4.50
2019-01-14T14:01:43.297Z,4.50
2019-01-14T14:04:13.545Z,4.50
2019-01-14T14:06:43.311Z,4.60
2019-01-14T14:09:13.143Z,4.50
2019-01-14T14:11:42.785Z,4.40
2019-01-14T14:14:12.590Z,4.40
2019-01-14T14:16:42.354Z,4.40
2019-01-14T14:19:13.059Z,4.40
2019-01-14T14:21:43.267Z,4.30
2019-01-14T14:24:13.773Z,4.30
2019-01-14T14:26:43.474Z,4.20
2019-01-14T14:29:14.123Z,4.20
2019-01-14T14:31:44.071Z,4.20
2019-01-14T14:34:13.747Z,4.10
2019-01-14T14:36:43.590Z,4.10
2019-01-14T14:39:14.290Z,4.10
2019-01-14T14:41:44.196Z,4.10
2019-01-14T14:44:14.149Z,4.10
2019-01-14T14:46:43.935Z,4.20
2019-01-14T14:49:13.755Z,4.20
2019-01-14T14:51:43.669Z,4.20
2019-01-14T14:54:13.276Z,4.20
2019-01-14T14:56:42.998Z,4.10
2019-01-14T14:59:12.730Z,4.10
2019-01-14T15:01:42.466Z,4.10
2019-01-14T15:04:12.091Z,4.10
2019-01-14T15:06:41.909Z,4.10
2019-01-14T15:09:11.624Z,4.10
2019-01-14T15:11:41.671Z,4.10
2019-01-14T15:14:11.448Z,4.10
2019-01-14T15:16:41.142Z,4.00
2019-01-14T15:19:11.005Z,4.00
2019-01-14T15:21:40.606Z,4.00
2019-01-14T15:24:11.310Z,3.90
2019-01-14T15:26:40.929Z,3.90
2019-01-14T15:29:10.783Z,3.90
2019-01-14T15:31:40.539Z,3.80
2019-01-14T15:34:10.544Z,3.90
2019-01-14T15:36:40.381Z,3.90
2019-01-14T15:39:10.517Z,3.90
2019-01-14T15:41:40.166Z,3.90
2019-01-14T15:44:09.975Z,3.90
2019-01-14T15:46:40.551Z,3.90
2019-01-14T15:49:10.321Z,3.90
2019-01-14T15:51:40.047Z,3.90
2019-01-14T15:54:09.805Z,3.80
2019-01-14T15:56:39.810Z,3.80
2019-01-14T15:59:09.579Z,3.70
2019-01-14T16:01:39.403Z,3.70
2019-01-14T16:04:09.092Z,3.70
2019-01-14T16:06:38.833Z,3.60
2019-01-14T16:09:08.679Z,3.60
2019-01-14T16:11:39.313Z,3.70
2019-01-14T16:14:09.479Z,3.70
2019-01-14T16:16:39.210Z,3.80
2019-01-14T16:19:09.888Z,3.80
2019-01-14T16:21:39.546Z,3.90
2019-01-14T16:24:09.376Z,3.90
2019-01-14T16:26:39.054Z,3.90
2019-01-14T16:29:08.783Z,3.90
2019-01-14T16:31:38.457Z,3.80
2019-01-14T16:34:08.139Z,3.90
2019-01-14T16:36:38.024Z,3.90
2019-01-14T16:39:08.410Z,3.80
2019-01-14T16:41:38.111Z,3.90
2019-01-14T16:44:07.918Z,3.90
2019-01-14T16:46:37.548Z,3.90
2019-01-14T16:49:07.393Z,3.90
2019-01-14T16:51:37.207Z,3.90
2019-01-14T16:54:08.336Z,3.90
2019-01-14T16:56:37.946Z,3.90
2019-01-14T16:59:08.606Z,3.90
2019-01-14T17:01:39.300Z,3.90
2019-01-14T17:04:08.996Z,3.90
2019-01-14T17:06:38.785Z,3.80
2019-01-14T17:09:09.073Z,3.80
2019-01-14T17:11:39.116Z,3.90
2019-01-14T17:14:09.822Z,3.90
2019-01-14T17:16:40.483Z,3.90
2019-01-14T17:19:10.947Z,3.90
2019-01-14T17:21:40.631Z,3.90
2019-01-14T17:24:11.231Z,4.00
2019-01-14T17:26:41.005Z,3.90
2019-01-14T17:29:10.673Z,3.80
2019-01-14T17:31:40.314Z,3.80
2019-01-14T17:34:10.097Z,3.80
2019-01-14T17:36:39.910Z,3.60
2019-01-14T17:39:10.171Z,3.00
2019-01-14T17:41:40.914Z,2.60
2019-01-14T17:44:10.750Z,2.30
2019-01-14T17:46:40.967Z,1.80
2019-01-14T17:49:11.519Z,1.40
2019-01-14T17:51:41.106Z,1.20
2019-01-14T17:54:11.185Z,1.10
2019-01-14T17:56:41.852Z,1.10
2019-01-14T17:59:11.542Z,1.10
2019-01-14T18:01:41.637Z,1.20
2019-01-14T18:04:11.412Z,1.30
2019-01-14T18:06:42.075Z,1.30
2019-01-14T18:09:12.827Z,1.30
2019-01-14T18:11:42.411Z,1.40
2019-01-14T18:14:12.154Z,1.40
2019-01-14T18:16:41.892Z,1.50
2019-01-14T18:19:11.625Z,1.50
2019-01-14T18:21:41.258Z,1.50
2019-01-14T18:24:11.136Z,1.60
2019-01-14T18:26:41.646Z,1.60
2019-01-14T18:29:11.483Z,1.60
2019-01-14T18:31:42.179Z,1.70
2019-01-14T18:34:11.856Z,1.70
2019-01-14T18:36:41.545Z,1.70
2019-01-14T18:39:11.321Z,1.70
2019-01-14T18:41:41.000Z,1.80
2019-01-14T18:44:10.802Z,1.80
2019-01-14T18:46:40.586Z,1.90
2019-01-14T18:49:10.489Z,1.90
2019-01-14T18:51:40.267Z,1.90
2019-01-14T18:54:09.953Z,2.00
2019-01-14T18:56:39.752Z,2.00
2019-01-14T18:59:09.492Z,1.90
2019-01-14T19:01:39.260Z,1.80
2019-01-14T19:04:08.926Z,1.70
2019-01-14T19:06:41.839Z,1.70
2019-01-14T19:09:11.659Z,1.70
2019-01-14T19:11:41.361Z,1.60
2019-01-14T19:14:11.287Z,1.60
2019-01-14T19:16:41.965Z,1.50
2019-01-14T19:19:11.662Z,1.50
2019-01-14T19:21:41.456Z,1.60
2019-01-14T19:24:11.241Z,1.70
2019-01-14T19:26:41.089Z,1.80
2019-01-14T19:29:10.803Z,1.80
2019-01-14T19:31:40.635Z,1.90
2019-01-14T19:34:10.214Z,1.90
2019-01-14T19:36:39.938Z,1.90
2019-01-14T19:39:10.636Z,1.90
2019-01-14T19:41:40.410Z,1.80
2019-01-14T19:44:10.145Z,1.80
2019-01-14T19:46:39.935Z,1.70
2019-01-14T19:49:10.603Z,1.70
2019-01-14T19:51:40.373Z,1.80
2019-01-14T19:54:10.135Z,1.80
2019-01-14T19:56:40.000Z,1.90
2019-01-14T19:59:09.758Z,1.90
2019-01-14T20:01:39.552Z,2.00
2019-01-14T20:04:10.302Z,2.10
2019-01-14T20:06:40.129Z,2.10
2019-01-14T20:09:10.981Z,2.10
2019-01-14T20:11:40.880Z,2.20
2019-01-14T20:14:10.753Z,2.20
2019-01-14T20:16:40.449Z,2.20
2019-01-14T20:19:10.321Z,2.20
2019-01-14T20:21:39.968Z,2.30
2019-01-14T20:24:09.792Z,2.30
2019-01-14T20:26:40.033Z,2.30
2019-01-14T20:29:09.711Z,2.30
2019-01-14T20:31:39.383Z,2.30
2019-01-14T20:34:09.064Z,2.30
2019-01-14T20:36:38.740Z,2.30
2019-01-14T20:39:09.270Z,2.30
2019-01-14T20:41:38.934Z,2.30
2019-01-14T20:44:08.731Z,2.30
2019-01-14T20:46:38.671Z,2.20
2019-01-14T20:49:08.429Z,2.20
2019-01-14T20:51:38.213Z,2.20
2019-01-14T20:54:08.007Z,2.20
2019-01-14T20:56:37.659Z,2.20
2019-01-14T20:59:08.344Z,2.20
2019-01-14T21:01:38.314Z,2.20
2019-01-14T21:04:09.452Z,2.20
2019-01-14T21:06:39.297Z,2.20
2019-01-14T21:09:09.271Z,2.20
2019-01-14T21:11:39.014Z,2.10
2019-01-14T21:14:08.960Z,2.10
2019-01-14T21:16:38.564Z,2.20
2019-01-14T21:19:08.373Z,2.10
2019-01-14T21:21:37.971Z,2.10
2019-01-14T21:24:08.728Z,2.20
2019-01-14T21:26:38.428Z,2.20
2019-01-14T21:29:08.243Z,2.20
2019-01-14T21:31:37.891Z,2.20
2019-01-14T21:34:07.730Z,2.30
2019-01-14T21:36:37.521Z,2.30
2019-01-14T21:39:09.577Z,2.20
2019-01-14T21:41:39.243Z,2.20
2019-01-14T21:44:08.926Z,2.30
2019-01-14T21:46:38.986Z,2.30
2019-01-14T21:49:09.075Z,2.20
2019-01-14T21:51:38.831Z,2.20
2019-01-14T21:54:08.657Z,2.30
2019-01-14T21:56:39.032Z,2.30
2019-01-14T21:59:08.804Z,2.30
2019-01-14T22:01:38.895Z,2.20
2019-01-14T22:04:08.682Z,2.20
2019-01-14T22:06:39.253Z,2.10
2019-01-14T22:09:09.246Z,2.10
2019-01-14T22:11:39.100Z,2.10
2019-01-14T22:14:08.938Z,2.10
2019-01-14T22:16:38.530Z,2.10
2019-01-14T22:19:08.302Z,2.00
2019-01-14T22:21:38.000Z,2.00
2019-01-14T22:24:07.685Z,1.90
2019-01-14T22:26:37.347Z,1.90
2019-01-14T22:29:09.009Z,1.90
2019-01-14T22:31:38.756Z,2.00
2019-01-14T22:34:08.671Z,1.90
2019-01-14T22:36:38.285Z,1.90
2019-01-14T22:39:08.408Z,1.90
2019-01-14T22:41:38.172Z,1.90
2019-01-14T22:44:07.914Z,1.90
2019-01-14T22:46:38.553Z,1.80
2019-01-14T22:49:08.247Z,1.80
2019-01-14T22:51:37.937Z,1.90
2019-01-14T22:54:07.757Z,1.80
2019-01-14T22:56:37.422Z,1.80
2019-01-14T22:59:07.116Z,1.70
2019-01-14T23:01:36.838Z,1.70
2019-01-14T23:04:08.516Z,1.70
2019-01-14T23:06:38.197Z,1.70
2019-01-14T23:09:08.277Z,1.70
2019-01-14T23:11:38.103Z,1.70
2019-01-14T23:14:08.872Z,1.70
2019-01-14T23:16:38.628Z,1.80
2019-01-14T23:19:08.332Z,1.80
2019-01-14T23:21:38.915Z,1.80
2019-01-14T23:24:08.668Z,1.80
2019-01-14T23:26:38.336Z,1.80
2019-01-14T23:29:08.083Z,1.80
2019-01-14T23:31:37.733Z,1.70
2019-01-14T23:34:07.439Z,1.70
2019-01-14T23:36:38.091Z,1.70
2019-01-14T23:39:09.088Z,1.70
2019-01-14T23:41:39.444Z,1.70
2019-01-14T23:44:09.245Z,1.60
2019-01-14T23:46:38.963Z,1.60
2019-01-14T23:49:08.713Z,1.50
2019-01-14T23:51:38.531Z,1.50
2019-01-14T23:54:08.357Z,1.40
2019-01-14T23:56:37.956Z,1.40
2019-01-14T23:59:07.812Z,1.40
